Time;durP1;ratioP1;P1;durP2;ratioP2;P2;SDS_P1;SDS_P2;PMS_P1;PMS_P2;Temp;Humidity;BMP_temperature;BMP_pressure;BME280_temperature;BME280_humidity;BME280_pressure;Samples;Min_cycle;Max_cycle;Signal;HPM_P1;HPM_P2
2023/02/21 02:22:40;;;;;;;2.57;1.57;;;;;;;8.30;70.35;99537.50;30868444;28;96997;-67
2023/02/21 02:38:02;;;;;;;3.00;1.60;;;;;;;8.28;70.32;99533.34;30866481;28;96751;-67
2023/02/21 02:53:03;;;;;;;2.03;1.27;;;;;;;8.30;70.84;99536.69;30866245;28;96717;-67
2023/02/21 03:08:38;;;;;;;2.17;1.30;;;;;;;8.36;70.96;99557.22;30864350;28;96734;-67
2023/02/21 03:23:42;;;;;;;2.60;1.50;;;;;;;8.43;71.32;99538.78;30861386;28;97334;-67
2023/02/21 03:38:42;;;;;;;1.90;1.13;;;;;;;8.41;71.28;99531.00;30860124;28;96885;-67
2023/02/21 03:53:43;;;;;;;5.93;1.75;;;;;;;8.44;71.77;99533.28;30859693;28;96523;-67
2023/02/21 04:08:43;;;;;;;3.55;1.70;;;;;;;8.51;71.91;99535.31;30858243;28;96606;-67
2023/02/21 04:23:44;;;;;;;4.35;2.60;;;;;;;8.55;71.83;99549.88;30857580;28;96714;-67
2023/02/21 04:38:44;;;;;;;5.78;2.70;;;;;;;8.57;71.93;99551.38;30854609;28;96533;-68
2023/02/21 04:53:46;;;;;;;5.85;2.90;;;;;;;8.60;71.92;99545.72;30853232;28;96684;-70
2023/02/21 05:08:46;;;;;;;6.23;3.30;;;;;;;8.34;72.35;99555.72;30850447;28;97223;-68
2023/02/21 05:23:54;;;;;;;4.57;3.28;;;;;;;8.16;74.24;99545.34;30846551;28;97434;-68
2023/02/21 05:38:55;;;;;;;7.80;3.63;;;;;;;8.18;74.42;99551.31;30848183;28;97408;-68
2023/02/21 05:53:55;;;;;;;6.00;3.53;;;;;;;8.25;74.31;99557.59;30847901;28;97476;-68
2023/02/21 06:08:56;;;;;;;6.53;3.78;;;;;;;8.34;74.57;99561.03;30866129;28;97161;-68
2023/02/21 06:23:56;;;;;;;6.53;3.90;;;;;;;8.38;74.58;99586.22;30865641;28;96943;-68
2023/02/21 06:38:57;;;;;;;6.43;4.03;;;;;;;8.41;75.31;99600.00;30848223;28;97034;-66
2023/02/21 06:53:57;;;;;;;7.45;4.60;;;;;;;8.43;75.18;99621.91;30740692;28;97273;-75
2023/02/21 07:08:58;;;;;;;6.93;4.50;;;;;;;8.67;75.67;99633.47;30826778;28;96743;-67
2023/02/21 07:23:58;;;;;;;8.50;4.60;;;;;;;8.97;75.65;99634.50;30857545;28;97362;-66
2023/02/21 07:38:58;;;;;;;7.03;3.90;;;;;;;9.23;75.01;99637.88;30853418;28;96682;-69
2023/02/21 07:53:59;;;;;;;7.40;4.10;;;;;;;9.47;74.76;99656.31;30851119;28;97467;-66
2023/02/21 08:08:59;;;;;;;8.63;4.28;;;;;;;9.55;74.08;99673.22;30853208;28;96657;-64
2023/02/21 08:24:00;;;;;;;6.63;3.58;;;;;;;9.58;74.07;99675.53;30852327;28;96641;-66
2023/02/21 08:39:00;;;;;;;8.98;3.10;;;;;;;9.62;73.61;99690.13;30851195;28;96636;-67
2023/02/21 08:54:02;;;;;;;4.35;2.53;;;;;;;9.85;73.32;99705.28;30848529;28;96658;-74
2023/02/21 09:09:03;;;;;;;4.33;2.20;;;;;;;10.41;72.82;99702.34;30846104;28;96569;-65
2023/02/21 09:24:04;;;;;;;2.78;1.95;;;;;;;10.18;71.69;99697.84;30847858;28;97252;-69
2023/02/21 09:39:05;;;;;;;3.17;2.27;;;;;;;10.51;72.24;99705.56;30860812;28;97102;-65
2023/02/21 09:54:17;;;;;;;3.93;2.03;;;;;;;13.60;68.88;99735.94;30867098;28;96947;-63
2023/02/21 10:09:48;;;;;;;4.03;2.20;;;;;;;17.00;61.94;99745.72;30863728;28;97073;-68
2023/02/21 10:24:49;;;;;;;2.40;1.30;;;;;;;15.36;57.50;99755.31;30807876;28;97530;-66
2023/02/21 10:39:55;;;;;;;3.07;1.73;;;;;;;12.79;60.12;99772.94;30755930;28;97317;-66
2023/02/21 10:55:12;;;;;;;4.70;1.90;;;;;;;11.35;63.47;99763.91;30741330;28;97657;-68
2023/02/21 11:10:32;;;;;;;3.47;1.93;;;;;;;10.91;67.39;99785.28;30745469;28;97146;-69
2023/02/21 11:25:38;;;;;;;4.47;2.40;;;;;;;13.81;65.33;99781.31;30817494;28;97503;-68
2023/02/21 11:40:47;;;;;;;3.77;1.70;;;;;;;15.30;58.11;99777.63;30815947;28;98194;-69
2023/02/21 11:56:03;;;;;;;2.70;1.43;;;;;;;12.92;60.72;99787.47;30808341;28;96800;-67
2023/02/21 12:11:23;;;;;;;3.40;1.30;;;;;;;13.96;60.76;99799.09;30845475;28;97304;-69
2023/02/21 12:26:27;;;;;;;2.03;1.20;;;;;;;14.21;59.17;99789.47;30847960;28;96755;-69
2023/02/21 12:41:36;;;;;;;3.33;1.50;;;;;;;16.00;54.97;99784.97;30748795;28;96798;-69
2023/02/21 12:56:45;;;;;;;2.50;1.07;;;;;;;17.99;49.75;99777.88;30726738;28;96793;-71
2023/02/21 13:12:11;;;;;;;1.87;0.90;;;;;;;16.65;50.31;99763.22;30739006;28;96924;-67
2023/02/21 13:27:30;;;;;;;2.53;1.30;;;;;;;16.88;45.45;99773.34;30746431;28;97489;-64
2023/02/21 13:42:37;;;;;;;2.83;0.80;;;;;;;14.19;49.32;99794.19;30743927;28;96853;-65
2023/02/21 13:57:59;;;;;;;4.10;0.90;;;;;;;13.08;51.69;99786.31;30792632;28;96855;-69
2023/02/21 14:13:04;;;;;;;1.93;0.80;;;;;;;19.00;41.88;99789.75;30814305;28;96836;-65
2023/02/21 14:28:43;;;;;;;0.80;0.60;;;;;;;25.19;33.68;99792.13;30837877;28;96767;-66
2023/02/21 14:44:08;;;;;;;1.67;1.10;;;;;;;22.37;34.89;99810.00;30776096;28;96770;-68
2023/02/21 14:59:30;;;;;;;2.23;1.53;;;;;;;16.71;42.13;99820.66;30739705;28;97405;-68
2023/02/21 15:14:38;;;;;;;4.47;1.60;;;;;;;13.98;47.21;99813.94;30765891;28;97242;-66
2023/02/21 15:29:39;;;;;;;2.17;0.80;;;;;;;12.42;49.84;99830.22;30848476;28;97145;-66
2023/02/21 15:44:51;;;;;;;6.70;1.63;;;;;;;11.40;52.78;99832.72;30840193;28;97357;-66
2023/02/21 16:00:34;;;;;;;3.80;1.80;;;;;;;10.76;56.25;99851.88;31082082;28;96376;-67
2023/02/21 16:15:36;;;;;;;3.97;1.20;;;;;;;10.01;57.73;99875.47;31050165;28;97523;-70
2023/02/21 16:30:38;;;;;;;1.67;0.80;;;;;;;9.31;59.11;99899.13;31028998;28;97462;-67
2023/02/21 16:45:41;;;;;;;3.17;0.93;;;;;;;8.89;60.43;99928.59;31072017;28;96815;-67
2023/02/21 17:00:41;;;;;;;12.43;3.07;;;;;;;8.56;61.04;99960.41;31024618;28;96672;-67
2023/02/21 17:15:42;;;;;;;6.13;1.27;;;;;;;8.73;62.15;99993.13;30854050;28;97081;-69
2023/02/21 17:30:42;;;;;;;4.05;1.67;;;;;;;8.88;62.76;100003.94;30969214;28;96837;-63
2023/02/21 17:45:44;;;;;;;4.32;1.63;;;;;;;8.47;63.44;100025.91;30973774;28;96956;-63
2023/02/21 18:00:45;;;;;;;6.10;2.43;;;;;;;8.40;64.39;100035.47;30961302;28;97120;-63
2023/02/21 18:15:46;;;;;;;4.78;2.25;;;;;;;8.36;64.75;100040.28;30907127;28;97656;-64
2023/02/21 18:30:50;;;;;;;5.00;2.70;;;;;;;8.34;65.46;100057.34;30882995;28;97252;-66
2023/02/21 18:45:52;;;;;;;7.43;2.80;;;;;;;8.32;66.02;100057.50;30961113;28;97226;-70
2023/02/21 19:00:52;;;;;;;6.13;2.37;;;;;;;8.13;65.00;100064.72;30949068;28;97156;-71
2023/02/21 19:15:52;;;;;;;8.43;3.60;;;;;;;7.68;65.94;100084.34;30960291;28;97117;-66
2023/02/21 19:30:53;;;;;;;10.55;2.88;;;;;;;7.81;65.81;100096.34;30941990;28;96623;-66
2023/02/21 19:45:54;;;;;;;12.90;2.88;;;;;;;7.80;65.38;100114.06;30907227;28;97842;-67
2023/02/21 20:00:54;;;;;;;7.22;2.25;;;;;;;7.76;64.50;100113.56;30908267;28;96834;-66
2023/02/21 20:15:54;;;;;;;10.23;3.15;;;;;;;7.68;63.97;100132.06;30904145;28;96841;-67
2023/02/21 20:30:55;;;;;;;9.30;2.60;;;;;;;7.60;63.12;100132.00;30874596;28;96894;-68
2023/02/21 20:45:55;;;;;;;10.65;3.22;;;;;;;7.51;62.55;100138.19;30919325;28;97293;-67
2023/02/21 21:00:56;;;;;;;11.45;3.15;;;;;;;7.45;62.05;100152.88;30903809;28;96749;-68
2023/02/21 21:15:57;;;;;;;14.40;3.75;;;;;;;7.24;62.52;100150.50;30865613;28;96984;-67
2023/02/21 21:31:00;;;;;;;15.05;3.47;;;;;;;7.11;61.71;100162.28;30865519;28;97069;-68
2023/02/21 21:46:00;;;;;;;12.83;3.53;;;;;;;7.02;61.89;100179.06;30863151;28;96939;-68
2023/02/21 22:01:04;;;;;;;13.38;3.55;;;;;;;6.95;62.45;100183.28;30863086;28;96958;-67
2023/02/21 22:16:04;;;;;;;10.63;2.77;;;;;;;6.78;62.62;100183.09;30862243;28;97476;-67
2023/02/21 22:31:07;;;;;;;11.90;3.15;;;;;;;6.73;63.34;100192.47;30860371;28;97307;-67
2023/02/21 22:46:08;;;;;;;13.23;4.57;;;;;;;6.58;63.39;100198.19;30859755;28;96778;-68
2023/02/21 23:01:08;;;;;;;17.55;5.80;;;;;;;6.24;63.90;100205.81;30858360;28;96699;-69
2023/02/21 23:16:09;;;;;;;14.68;5.00;;;;;;;6.05;65.66;100215.44;30856730;28;96720;-66
2023/02/21 23:31:12;;;;;;;14.73;4.90;;;;;;;6.08;65.91;100222.25;30856593;28;96648;-68
2023/02/21 23:46:30;;;;;;;17.90;5.80;;;;;;;5.67;66.72;100221.50;30855417;28;96693;-69
